sensor_id;sensor_type;location;lat;lon;timestamp;P1;durP1;ratioP1;P2;durP2;ratioP2
85314;SDS011;75718;50.886;11.656;2024-03-08T00:01:51;30.55;;;16.38;;
85314;SDS011;75718;50.886;11.656;2024-03-08T00:04:17;32.27;;;18.77;;
85314;SDS011;75718;50.886;11.656;2024-03-08T00:06:42;32.77;;;15.70;;
85314;SDS011;75718;50.886;11.656;2024-03-08T00:09:10;28.83;;;15.63;;
85314;SDS011;75718;50.886;11.656;2024-03-08T00:11:36;33.13;;;16.60;;
85314;SDS011;75718;50.886;11.656;2024-03-08T00:14:01;34.33;;;17.03;;
85314;SDS011;75718;50.886;11.656;2024-03-08T00:16:26;34.08;;;17.50;;
85314;SDS011;75718;50.886;11.656;2024-03-08T00:18:52;28.92;;;16.08;;
85314;SDS011;75718;50.886;11.656;2024-03-08T00:21:17;34.30;;;17.03;;
85314;SDS011;75718;50.886;11.656;2024-03-08T00:23:43;30.40;;;15.57;;
85314;SDS011;75718;50.886;11.656;2024-03-08T00:26:08;27.23;;;14.10;;
85314;SDS011;75718;50.886;11.656;2024-03-08T00:28:34;31.05;;;16.40;;
85314;SDS011;75718;50.886;11.656;2024-03-08T00:30:59;33.40;;;16.27;;
85314;SDS011;75718;50.886;11.656;2024-03-08T00:33:25;36.38;;;17.58;;
85314;SDS011;75718;50.886;11.656;2024-03-08T00:35:50;37.95;;;17.67;;
85314;SDS011;75718;50.886;11.656;2024-03-08T00:38:16;34.75;;;15.93;;
85314;SDS011;75718;50.886;11.656;2024-03-08T00:40:41;32.53;;;16.63;;
85314;SDS011;75718;50.886;11.656;2024-03-08T00:43:06;31.30;;;15.93;;
85314;SDS011;75718;50.886;11.656;2024-03-08T00:45:31;35.87;;;16.30;;
85314;SDS011;75718;50.886;11.656;2024-03-08T00:47:56;34.03;;;17.20;;
85314;SDS011;75718;50.886;11.656;2024-03-08T00:50:22;32.97;;;15.47;;
85314;SDS011;75718;50.886;11.656;2024-03-08T00:52:47;34.83;;;17.17;;
85314;SDS011;75718;50.886;11.656;2024-03-08T00:55:12;32.20;;;17.23;;
85314;SDS011;75718;50.886;11.656;2024-03-08T00:57:37;34.70;;;16.13;;
85314;SDS011;75718;50.886;11.656;2024-03-08T01:00:04;34.88;;;16.38;;
85314;SDS011;75718;50.886;11.656;2024-03-08T01:02:34;31.10;;;15.70;;
85314;SDS011;75718;50.886;11.656;2024-03-08T01:05:00;32.97;;;15.70;;
85314;SDS011;75718;50.886;11.656;2024-03-08T01:07:26;31.52;;;16.38;;
85314;SDS011;75718;50.886;11.656;2024-03-08T01:09:51;43.60;;;18.27;;
85314;SDS011;75718;50.886;11.656;2024-03-08T01:12:16;34.43;;;16.97;;
85314;SDS011;75718;50.886;11.656;2024-03-08T01:14:42;35.20;;;16.95;;
85314;SDS011;75718;50.886;11.656;2024-03-08T01:17:07;37.73;;;17.17;;
85314;SDS011;75718;50.886;11.656;2024-03-08T01:19:34;31.45;;;16.33;;
85314;SDS011;75718;50.886;11.656;2024-03-08T01:21:59;38.10;;;18.27;;
85314;SDS011;75718;50.886;11.656;2024-03-08T01:24:25;33.23;;;16.73;;
85314;SDS011;75718;50.886;11.656;2024-03-08T01:26:50;38.67;;;18.05;;
85314;SDS011;75718;50.886;11.656;2024-03-08T01:29:15;38.17;;;17.37;;
85314;SDS011;75718;50.886;11.656;2024-03-08T01:31:40;30.97;;;14.83;;
85314;SDS011;75718;50.886;11.656;2024-03-08T01:34:06;35.60;;;16.43;;
85314;SDS011;75718;50.886;11.656;2024-03-08T01:36:31;31.97;;;17.03;;
85314;SDS011;75718;50.886;11.656;2024-03-08T01:38:56;36.83;;;18.13;;
85314;SDS011;75718;50.886;11.656;2024-03-08T01:41:22;32.97;;;17.30;;
85314;SDS011;75718;50.886;11.656;2024-03-08T01:43:47;38.78;;;20.20;;
85314;SDS011;75718;50.886;11.656;2024-03-08T01:46:14;37.87;;;18.37;;
85314;SDS011;75718;50.886;11.656;2024-03-08T01:48:42;37.42;;;17.20;;
85314;SDS011;75718;50.886;11.656;2024-03-08T01:51:08;38.15;;;18.67;;
85314;SDS011;75718;50.886;11.656;2024-03-08T01:53:36;44.35;;;19.77;;
85314;SDS011;75718;50.886;11.656;2024-03-08T01:56:02;40.33;;;19.92;;
85314;SDS011;75718;50.886;11.656;2024-03-08T01:58:28;39.67;;;18.80;;
85314;SDS011;75718;50.886;11.656;2024-03-08T02:00:54;37.28;;;17.13;;
85314;SDS011;75718;50.886;11.656;2024-03-08T02:03:21;38.47;;;18.70;;
85314;SDS011;75718;50.886;11.656;2024-03-08T02:05:47;38.65;;;20.05;;
85314;SDS011;75718;50.886;11.656;2024-03-08T02:08:13;41.92;;;19.55;;
85314;SDS011;75718;50.886;11.656;2024-03-08T02:10:40;39.58;;;17.63;;
85314;SDS011;75718;50.886;11.656;2024-03-08T02:13:06;44.47;;;18.58;;
85314;SDS011;75718;50.886;11.656;2024-03-08T02:18:21;35.63;;;17.13;;
85314;SDS011;75718;50.886;11.656;2024-03-08T02:20:47;38.70;;;18.88;;
85314;SDS011;75718;50.886;11.656;2024-03-08T02:23:23;36.97;;;18.98;;
85314;SDS011;75718;50.886;11.656;2024-03-08T02:25:52;38.08;;;17.92;;
85314;SDS011;75718;50.886;11.656;2024-03-08T02:28:18;36.42;;;17.95;;
85314;SDS011;75718;50.886;11.656;2024-03-08T02:30:45;43.70;;;18.60;;
85314;SDS011;75718;50.886;11.656;2024-03-08T02:33:14;34.00;;;17.45;;
85314;SDS011;75718;50.886;11.656;2024-03-08T02:35:43;40.95;;;19.17;;
85314;SDS011;75718;50.886;11.656;2024-03-08T02:38:12;36.85;;;18.02;;
85314;SDS011;75718;50.886;11.656;2024-03-08T02:40:44;37.92;;;18.08;;
85314;SDS011;75718;50.886;11.656;2024-03-08T02:43:11;41.38;;;19.20;;
85314;SDS011;75718;50.886;11.656;2024-03-08T02:45:37;35.15;;;17.38;;
85314;SDS011;75718;50.886;11.656;2024-03-08T02:48:02;38.17;;;19.17;;
85314;SDS011;75718;50.886;11.656;2024-03-08T02:50:28;39.45;;;19.00;;
85314;SDS011;75718;50.886;11.656;2024-03-08T02:52:53;38.43;;;17.67;;
85314;SDS011;75718;50.886;11.656;2024-03-08T02:55:19;39.78;;;17.67;;
85314;SDS011;75718;50.886;11.656;2024-03-08T02:57:44;40.72;;;19.45;;
85314;SDS011;75718;50.886;11.656;2024-03-08T03:00:12;43.50;;;21.92;;
85314;SDS011;75718;50.886;11.656;2024-03-08T03:02:38;43.53;;;19.77;;
85314;SDS011;75718;50.886;11.656;2024-03-08T03:05:03;40.87;;;18.33;;
85314;SDS011;75718;50.886;11.656;2024-03-08T03:07:31;43.90;;;19.48;;
85314;SDS011;75718;50.886;11.656;2024-03-08T03:09:58;40.92;;;20.05;;
85314;SDS011;75718;50.886;11.656;2024-03-08T03:12:24;42.60;;;19.58;;
85314;SDS011;75718;50.886;11.656;2024-03-08T03:14:49;35.37;;;18.03;;
85314;SDS011;75718;50.886;11.656;2024-03-08T03:17:14;41.50;;;19.50;;
85314;SDS011;75718;50.886;11.656;2024-03-08T03:19:40;45.60;;;19.47;;
85314;SDS011;75718;50.886;11.656;2024-03-08T03:22:05;39.17;;;19.70;;
85314;SDS011;75718;50.886;11.656;2024-03-08T03:24:32;45.80;;;20.90;;
85314;SDS011;75718;50.886;11.656;2024-03-08T03:26:58;42.97;;;18.73;;
85314;SDS011;75718;50.886;11.656;2024-03-08T03:29:24;42.25;;;20.63;;
85314;SDS011;75718;50.886;11.656;2024-03-08T03:31:50;48.33;;;20.23;;
85314;SDS011;75718;50.886;11.656;2024-03-08T03:34:15;39.55;;;20.17;;
85314;SDS011;75718;50.886;11.656;2024-03-08T03:36:41;41.22;;;19.77;;
85314;SDS011;75718;50.886;11.656;2024-03-08T03:39:08;42.63;;;19.58;;
85314;SDS011;75718;50.886;11.656;2024-03-08T03:41:41;37.88;;;17.33;;
85314;SDS011;75718;50.886;11.656;2024-03-08T03:44:07;48.03;;;21.77;;
85314;SDS011;75718;50.886;11.656;2024-03-08T03:46:33;44.97;;;19.85;;
85314;SDS011;75718;50.886;11.656;2024-03-08T03:48:58;43.60;;;19.15;;
85314;SDS011;75718;50.886;11.656;2024-03-08T03:51:23;45.40;;;19.93;;
85314;SDS011;75718;50.886;11.656;2024-03-08T03:53:49;45.58;;;18.92;;
85314;SDS011;75718;50.886;11.656;2024-03-08T03:56:14;45.30;;;20.77;;
85314;SDS011;75718;50.886;11.656;2024-03-08T03:58:40;41.53;;;18.47;;
85314;SDS011;75718;50.886;11.656;2024-03-08T04:01:05;49.03;;;20.13;;
85314;SDS011;75718;50.886;11.656;2024-03-08T04:03:30;46.63;;;21.40;;
85314;SDS011;75718;50.886;11.656;2024-03-08T04:05:55;38.08;;;17.63;;
85314;SDS011;75718;50.886;11.656;2024-03-08T04:08:21;40.07;;;19.53;;
85314;SDS011;75718;50.886;11.656;2024-03-08T04:10:46;41.90;;;18.73;;
85314;SDS011;75718;50.886;11.656;2024-03-08T04:13:11;42.47;;;20.02;;
85314;SDS011;75718;50.886;11.656;2024-03-08T04:15:37;40.95;;;19.40;;
85314;SDS011;75718;50.886;11.656;2024-03-08T04:18:02;40.05;;;19.10;;
85314;SDS011;75718;50.886;11.656;2024-03-08T04:20:28;44.17;;;18.27;;
85314;SDS011;75718;50.886;11.656;2024-03-08T04:22:53;42.97;;;19.30;;
85314;SDS011;75718;50.886;11.656;2024-03-08T04:25:19;48.70;;;20.33;;
85314;SDS011;75718;50.886;11.656;2024-03-08T04:27:45;42.83;;;19.80;;
85314;SDS011;75718;50.886;11.656;2024-03-08T04:30:12;45.35;;;20.15;;
85314;SDS011;75718;50.886;11.656;2024-03-08T04:32:37;46.80;;;20.75;;
85314;SDS011;75718;50.886;11.656;2024-03-08T04:35:02;50.03;;;21.00;;
85314;SDS011;75718;50.886;11.656;2024-03-08T04:37:28;45.85;;;20.88;;
85314;SDS011;75718;50.886;11.656;2024-03-08T04:39:56;42.35;;;19.02;;
85314;SDS011;75718;50.886;11.656;2024-03-08T04:42:22;42.58;;;19.13;;
85314;SDS011;75718;50.886;11.656;2024-03-08T04:44:47;49.58;;;21.20;;
85314;SDS011;75718;50.886;11.656;2024-03-08T04:47:13;46.05;;;19.70;;
85314;SDS011;75718;50.886;11.656;2024-03-08T04:49:38;46.60;;;21.88;;
85314;SDS011;75718;50.886;11.656;2024-03-08T04:52:04;46.27;;;20.17;;
85314;SDS011;75718;50.886;11.656;2024-03-08T04:54:30;45.80;;;20.75;;
85314;SDS011;75718;50.886;11.656;2024-03-08T04:56:55;43.05;;;19.17;;
85314;SDS011;75718;50.886;11.656;2024-03-08T04:59:21;46.47;;;21.27;;
85314;SDS011;75718;50.886;11.656;2024-03-08T05:01:46;40.42;;;19.40;;
85314;SDS011;75718;50.886;11.656;2024-03-08T05:04:12;42.58;;;19.48;;
85314;SDS011;75718;50.886;11.656;2024-03-08T05:06:37;56.85;;;23.77;;
85314;SDS011;75718;50.886;11.656;2024-03-08T05:09:03;40.10;;;19.83;;
85314;SDS011;75718;50.886;11.656;2024-03-08T05:11:41;40.20;;;20.42;;
85314;SDS011;75718;50.886;11.656;2024-03-08T05:14:07;53.88;;;23.15;;
85314;SDS011;75718;50.886;11.656;2024-03-08T05:16:33;49.30;;;21.92;;
85314;SDS011;75718;50.886;11.656;2024-03-08T05:18:58;46.85;;;20.65;;
85314;SDS011;75718;50.886;11.656;2024-03-08T05:21:24;50.73;;;18.77;;
85314;SDS011;75718;50.886;11.656;2024-03-08T05:23:50;47.57;;;20.93;;
85314;SDS011;75718;50.886;11.656;2024-03-08T05:26:17;48.17;;;22.10;;
85314;SDS011;75718;50.886;11.656;2024-03-08T05:31:18;38.50;;;17.03;;
85314;SDS011;75718;50.886;11.656;2024-03-08T05:33:49;34.15;;;17.05;;
85314;SDS011;75718;50.886;11.656;2024-03-08T05:36:15;43.90;;;22.08;;
85314;SDS011;75718;50.886;11.656;2024-03-08T05:38:42;46.78;;;21.75;;
85314;SDS011;75718;50.886;11.656;2024-03-08T05:41:08;45.70;;;20.95;;
85314;SDS011;75718;50.886;11.656;2024-03-08T05:43:34;44.25;;;21.98;;
85314;SDS011;75718;50.886;11.656;2024-03-08T05:45:59;45.37;;;21.83;;
85314;SDS011;75718;50.886;11.656;2024-03-08T05:48:24;48.77;;;21.80;;
85314;SDS011;75718;50.886;11.656;2024-03-08T05:50:50;53.65;;;23.05;;
85314;SDS011;75718;50.886;11.656;2024-03-08T05:53:15;40.72;;;18.58;;
85314;SDS011;75718;50.886;11.656;2024-03-08T05:55:40;46.17;;;20.40;;
85314;SDS011;75718;50.886;11.656;2024-03-08T05:58:06;45.73;;;21.17;;
85314;SDS011;75718;50.886;11.656;2024-03-08T06:00:32;54.53;;;22.92;;
85314;SDS011;75718;50.886;11.656;2024-03-08T06:02:58;49.40;;;21.38;;
85314;SDS011;75718;50.886;11.656;2024-03-08T06:05:25;40.95;;;19.45;;
85314;SDS011;75718;50.886;11.656;2024-03-08T06:07:50;43.57;;;21.30;;
85314;SDS011;75718;50.886;11.656;2024-03-08T06:10:18;50.20;;;22.73;;
85314;SDS011;75718;50.886;11.656;2024-03-08T06:12:43;52.08;;;22.67;;
85314;SDS011;75718;50.886;11.656;2024-03-08T06:15:10;52.35;;;24.50;;
85314;SDS011;75718;50.886;11.656;2024-03-08T06:17:39;45.17;;;21.08;;
85314;SDS011;75718;50.886;11.656;2024-03-08T06:20:04;41.23;;;21.20;;
85314;SDS011;75718;50.886;11.656;2024-03-08T06:22:35;51.38;;;22.23;;
85314;SDS011;75718;50.886;11.656;2024-03-08T06:25:01;41.33;;;22.38;;
85314;SDS011;75718;50.886;11.656;2024-03-08T06:27:26;45.30;;;22.63;;
85314;SDS011;75718;50.886;11.656;2024-03-08T06:29:52;45.78;;;20.33;;
85314;SDS011;75718;50.886;11.656;2024-03-08T06:32:17;40.10;;;18.77;;
85314;SDS011;75718;50.886;11.656;2024-03-08T06:34:43;47.08;;;22.40;;
85314;SDS011;75718;50.886;11.656;2024-03-08T06:37:15;46.50;;;21.63;;
85314;SDS011;75718;50.886;11.656;2024-03-08T06:39:40;48.30;;;20.85;;
85314;SDS011;75718;50.886;11.656;2024-03-08T06:42:05;45.17;;;22.23;;
85314;SDS011;75718;50.886;11.656;2024-03-08T06:44:31;42.53;;;19.02;;
85314;SDS011;75718;50.886;11.656;2024-03-08T06:46:56;36.85;;;18.75;;
85314;SDS011;75718;50.886;11.656;2024-03-08T06:49:21;39.37;;;18.53;;
85314;SDS011;75718;50.886;11.656;2024-03-08T06:51:47;44.83;;;21.93;;
85314;SDS011;75718;50.886;11.656;2024-03-08T06:54:12;38.42;;;19.73;;
85314;SDS011;75718;50.886;11.656;2024-03-08T06:56:37;36.25;;;19.90;;
85314;SDS011;75718;50.886;11.656;2024-03-08T06:59:03;40.97;;;20.10;;
85314;SDS011;75718;50.886;11.656;2024-03-08T07:01:28;39.90;;;18.88;;
85314;SDS011;75718;50.886;11.656;2024-03-08T07:03:57;41.80;;;19.40;;
85314;SDS011;75718;50.886;11.656;2024-03-08T07:06:27;41.67;;;17.90;;
85314;SDS011;75718;50.886;11.656;2024-03-08T07:08:53;42.97;;;20.58;;
85314;SDS011;75718;50.886;11.656;2024-03-08T07:11:19;36.50;;;17.52;;
85314;SDS011;75718;50.886;11.656;2024-03-08T07:13:45;38.87;;;18.07;;
85314;SDS011;75718;50.886;11.656;2024-03-08T07:16:10;39.65;;;18.98;;
85314;SDS011;75718;50.886;11.656;2024-03-08T07:18:37;42.17;;;19.30;;
85314;SDS011;75718;50.886;11.656;2024-03-08T07:21:04;36.45;;;17.75;;
85314;SDS011;75718;50.886;11.656;2024-03-08T07:23:30;39.63;;;18.15;;
85314;SDS011;75718;50.886;11.656;2024-03-08T07:26:33;43.10;;;18.80;;
85314;SDS011;75718;50.886;11.656;2024-03-08T07:28:59;43.60;;;20.13;;
85314;SDS011;75718;50.886;11.656;2024-03-08T07:31:25;40.45;;;20.13;;
85314;SDS011;75718;50.886;11.656;2024-03-08T07:33:50;45.15;;;20.50;;
85314;SDS011;75718;50.886;11.656;2024-03-08T07:36:16;37.83;;;19.70;;
85314;SDS011;75718;50.886;11.656;2024-03-08T07:38:41;40.08;;;20.70;;
85314;SDS011;75718;50.886;11.656;2024-03-08T07:41:06;40.73;;;19.40;;
85314;SDS011;75718;50.886;11.656;2024-03-08T07:43:32;41.83;;;19.17;;
85314;SDS011;75718;50.886;11.656;2024-03-08T07:46:00;38.72;;;18.27;;
85314;SDS011;75718;50.886;11.656;2024-03-08T07:48:25;39.20;;;19.77;;
85314;SDS011;75718;50.886;11.656;2024-03-08T07:50:50;39.40;;;21.00;;
85314;SDS011;75718;50.886;11.656;2024-03-08T07:53:16;37.27;;;18.23;;
85314;SDS011;75718;50.886;11.656;2024-03-08T07:55:41;41.23;;;19.63;;
85314;SDS011;75718;50.886;11.656;2024-03-08T07:58:07;40.63;;;19.85;;
85314;SDS011;75718;50.886;11.656;2024-03-08T08:00:35;39.22;;;18.95;;
85314;SDS011;75718;50.886;11.656;2024-03-08T08:03:01;33.22;;;17.73;;
85314;SDS011;75718;50.886;11.656;2024-03-08T08:05:27;37.40;;;18.70;;
85314;SDS011;75718;50.886;11.656;2024-03-08T08:07:52;30.50;;;17.57;;
85314;SDS011;75718;50.886;11.656;2024-03-08T08:10:18;38.70;;;20.15;;
85314;SDS011;75718;50.886;11.656;2024-03-08T08:12:46;39.97;;;20.30;;
85314;SDS011;75718;50.886;11.656;2024-03-08T08:15:12;38.63;;;20.15;;
85314;SDS011;75718;50.886;11.656;2024-03-08T08:17:37;38.15;;;20.40;;
85314;SDS011;75718;50.886;11.656;2024-03-08T08:20:03;36.22;;;19.88;;
85314;SDS011;75718;50.886;11.656;2024-03-08T08:22:30;35.50;;;19.52;;
85314;SDS011;75718;50.886;11.656;2024-03-08T08:24:56;33.20;;;18.15;;
85314;SDS011;75718;50.886;11.656;2024-03-08T08:27:21;35.08;;;19.65;;
85314;SDS011;75718;50.886;11.656;2024-03-08T08:29:46;33.57;;;19.00;;
85314;SDS011;75718;50.886;11.656;2024-03-08T08:32:11;32.27;;;18.90;;
85314;SDS011;75718;50.886;11.656;2024-03-08T08:34:37;35.37;;;19.10;;
85314;SDS011;75718;50.886;11.656;2024-03-08T08:37:02;34.63;;;20.60;;
85314;SDS011;75718;50.886;11.656;2024-03-08T08:39:27;30.88;;;18.63;;
85314;SDS011;75718;50.886;11.656;2024-03-08T08:41:53;32.60;;;18.13;;
85314;SDS011;75718;50.886;11.656;2024-03-08T08:44:18;33.17;;;18.50;;
85314;SDS011;75718;50.886;11.656;2024-03-08T08:46:43;31.10;;;17.60;;
85314;SDS011;75718;50.886;11.656;2024-03-08T08:49:09;29.42;;;19.27;;
85314;SDS011;75718;50.886;11.656;2024-03-08T08:51:39;37.35;;;20.08;;
85314;SDS011;75718;50.886;11.656;2024-03-08T08:54:04;30.75;;;18.33;;
85314;SDS011;75718;50.886;11.656;2024-03-08T08:56:31;30.92;;;18.13;;
85314;SDS011;75718;50.886;11.656;2024-03-08T08:58:57;29.50;;;17.20;;
85314;SDS011;75718;50.886;11.656;2024-03-08T09:01:22;32.90;;;18.55;;
85314;SDS011;75718;50.886;11.656;2024-03-08T09:03:48;28.80;;;17.65;;
85314;SDS011;75718;50.886;11.656;2024-03-08T09:06:15;29.52;;;18.65;;
85314;SDS011;75718;50.886;11.656;2024-03-08T09:08:41;31.25;;;18.95;;
85314;SDS011;75718;50.886;11.656;2024-03-08T09:11:07;32.15;;;19.55;;
85314;SDS011;75718;50.886;11.656;2024-03-08T09:13:32;32.47;;;19.48;;
85314;SDS011;75718;50.886;11.656;2024-03-08T09:16:01;33.78;;;18.45;;
85314;SDS011;75718;50.886;11.656;2024-03-08T09:18:27;29.27;;;18.77;;
85314;SDS011;75718;50.886;11.656;2024-03-08T09:20:53;31.67;;;19.60;;
85314;SDS011;75718;50.886;11.656;2024-03-08T09:23:22;28.48;;;17.17;;
85314;SDS011;75718;50.886;11.656;2024-03-08T09:25:47;28.02;;;17.27;;
85314;SDS011;75718;50.886;11.656;2024-03-08T09:28:12;25.73;;;17.63;;
85314;SDS011;75718;50.886;11.656;2024-03-08T09:30:38;27.67;;;16.33;;
85314;SDS011;75718;50.886;11.656;2024-03-08T09:33:04;28.25;;;16.05;;
85314;SDS011;75718;50.886;11.656;2024-03-08T09:35:30;23.48;;;15.68;;
85314;SDS011;75718;50.886;11.656;2024-03-08T09:37:56;25.05;;;15.10;;
85314;SDS011;75718;50.886;11.656;2024-03-08T09:40:21;21.57;;;14.17;;
85314;SDS011;75718;50.886;11.656;2024-03-08T09:42:49;24.27;;;15.68;;
85314;SDS011;75718;50.886;11.656;2024-03-08T09:45:15;24.13;;;15.05;;
85314;SDS011;75718;50.886;11.656;2024-03-08T09:47:42;27.02;;;14.98;;
85314;SDS011;75718;50.886;11.656;2024-03-08T09:50:08;27.15;;;16.33;;
85314;SDS011;75718;50.886;11.656;2024-03-08T09:52:46;24.90;;;15.05;;
85314;SDS011;75718;50.886;11.656;2024-03-08T09:55:13;24.08;;;15.68;;
85314;SDS011;75718;50.886;11.656;2024-03-08T09:57:39;26.50;;;15.30;;
85314;SDS011;75718;50.886;11.656;2024-03-08T10:00:05;25.63;;;14.52;;
85314;SDS011;75718;50.886;11.656;2024-03-08T10:02:46;27.98;;;15.23;;
85314;SDS011;75718;50.886;11.656;2024-03-08T10:05:12;24.75;;;14.18;;
85314;SDS011;75718;50.886;11.656;2024-03-08T10:07:38;23.92;;;14.27;;
85314;SDS011;75718;50.886;11.656;2024-03-08T10:10:04;25.30;;;14.60;;
85314;SDS011;75718;50.886;11.656;2024-03-08T10:12:29;25.25;;;15.38;;
85314;SDS011;75718;50.886;11.656;2024-03-08T10:14:56;24.08;;;15.15;;
85314;SDS011;75718;50.886;11.656;2024-03-08T10:17:23;27.08;;;14.35;;
85314;SDS011;75718;50.886;11.656;2024-03-08T10:19:49;26.58;;;15.88;;
85314;SDS011;75718;50.886;11.656;2024-03-08T10:22:16;24.17;;;13.90;;
85314;SDS011;75718;50.886;11.656;2024-03-08T10:24:41;22.53;;;12.73;;
85314;SDS011;75718;50.886;11.656;2024-03-08T10:27:07;22.35;;;13.73;;
85314;SDS011;75718;50.886;11.656;2024-03-08T10:29:32;20.00;;;13.60;;
85314;SDS011;75718;50.886;11.656;2024-03-08T10:31:58;25.80;;;14.63;;
85314;SDS011;75718;50.886;11.656;2024-03-08T10:34:23;25.65;;;14.48;;
85314;SDS011;75718;50.886;11.656;2024-03-08T10:36:49;25.45;;;15.27;;
85314;SDS011;75718;50.886;11.656;2024-03-08T10:39:23;24.20;;;15.02;;
85314;SDS011;75718;50.886;11.656;2024-03-08T10:41:53;21.85;;;13.95;;
85314;SDS011;75718;50.886;11.656;2024-03-08T10:47:03;23.17;;;14.68;;
85314;SDS011;75718;50.886;11.656;2024-03-08T10:50:08;24.88;;;13.95;;
85314;SDS011;75718;50.886;11.656;2024-03-08T10:52:35;24.67;;;15.70;;
85314;SDS011;75718;50.886;11.656;2024-03-08T10:55:01;24.33;;;15.27;;
85314;SDS011;75718;50.886;11.656;2024-03-08T10:57:27;23.90;;;15.68;;
85314;SDS011;75718;50.886;11.656;2024-03-08T10:59:52;21.30;;;14.23;;
85314;SDS011;75718;50.886;11.656;2024-03-08T11:02:18;22.52;;;15.20;;
85314;SDS011;75718;50.886;11.656;2024-03-08T11:04:47;26.02;;;17.15;;
85314;SDS011;75718;50.886;11.656;2024-03-08T11:07:14;23.38;;;14.65;;
85314;SDS011;75718;50.886;11.656;2024-03-08T11:09:43;24.05;;;13.82;;
85314;SDS011;75718;50.886;11.656;2024-03-08T11:12:20;24.95;;;15.70;;
85314;SDS011;75718;50.886;11.656;2024-03-08T11:14:50;21.20;;;14.40;;
85314;SDS011;75718;50.886;11.656;2024-03-08T11:18:02;25.15;;;16.17;;
85314;SDS011;75718;50.886;11.656;2024-03-08T11:20:14;23.98;;;15.80;;
85314;SDS011;75718;50.886;11.656;2024-03-08T11:22:41;25.98;;;15.25;;
85314;SDS011;75718;50.886;11.656;2024-03-08T11:25:10;23.05;;;15.60;;
85314;SDS011;75718;50.886;11.656;2024-03-08T11:33:13;22.98;;;16.17;;
85314;SDS011;75718;50.886;11.656;2024-03-08T11:35:39;26.33;;;17.10;;
85314;SDS011;75718;50.886;11.656;2024-03-08T11:38:07;23.75;;;14.35;;
85314;SDS011;75718;50.886;11.656;2024-03-08T11:40:34;25.27;;;17.05;;
85314;SDS011;75718;50.886;11.656;2024-03-08T11:43:00;25.27;;;16.73;;
85314;SDS011;75718;50.886;11.656;2024-03-08T11:45:29;23.05;;;16.15;;
85314;SDS011;75718;50.886;11.656;2024-03-08T11:47:54;24.77;;;15.70;;
85314;SDS011;75718;50.886;11.656;2024-03-08T11:50:20;26.23;;;14.80;;
85314;SDS011;75718;50.886;11.656;2024-03-08T11:52:48;22.80;;;14.50;;
85314;SDS011;75718;50.886;11.656;2024-03-08T11:55:14;23.27;;;16.02;;
85314;SDS011;75718;50.886;11.656;2024-03-08T11:57:39;24.52;;;16.73;;
85314;SDS011;75718;50.886;11.656;2024-03-08T12:00:05;26.33;;;16.93;;
85314;SDS011;75718;50.886;11.656;2024-03-08T12:02:33;25.42;;;17.05;;
85314;SDS011;75718;50.886;11.656;2024-03-08T12:05:03;26.83;;;17.10;;
85314;SDS011;75718;50.886;11.656;2024-03-08T12:07:31;26.30;;;16.27;;
85314;SDS011;75718;50.886;11.656;2024-03-08T12:10:16;27.77;;;16.83;;
85314;SDS011;75718;50.886;11.656;2024-03-08T12:12:43;22.42;;;14.90;;
85314;SDS011;75718;50.886;11.656;2024-03-08T12:15:13;26.42;;;16.30;;
85314;SDS011;75718;50.886;11.656;2024-03-08T12:17:40;24.67;;;15.57;;
85314;SDS011;75718;50.886;11.656;2024-03-08T12:20:20;23.30;;;15.98;;
85314;SDS011;75718;50.886;11.656;2024-03-08T12:22:55;26.27;;;15.77;;
85314;SDS011;75718;50.886;11.656;2024-03-08T12:25:32;23.02;;;15.27;;
85314;SDS011;75718;50.886;11.656;2024-03-08T12:28:09;23.85;;;15.50;;
85314;SDS011;75718;50.886;11.656;2024-03-08T12:30:36;21.10;;;14.63;;
85314;SDS011;75718;50.886;11.656;2024-03-08T12:33:11;21.83;;;15.65;;
85314;SDS011;75718;50.886;11.656;2024-03-08T12:35:37;21.30;;;14.25;;
85314;SDS011;75718;50.886;11.656;2024-03-08T12:38:03;21.42;;;14.02;;
85314;SDS011;75718;50.886;11.656;2024-03-08T12:40:31;21.38;;;14.32;;
85314;SDS011;75718;50.886;11.656;2024-03-08T12:42:59;21.33;;;13.93;;
85314;SDS011;75718;50.886;11.656;2024-03-08T12:45:25;19.48;;;12.95;;
85314;SDS011;75718;50.886;11.656;2024-03-08T12:47:50;20.20;;;14.98;;
85314;SDS011;75718;50.886;11.656;2024-03-08T12:50:16;23.95;;;15.57;;
85314;SDS011;75718;50.886;11.656;2024-03-08T12:52:43;20.55;;;12.27;;
85314;SDS011;75718;50.886;11.656;2024-03-08T12:55:08;19.50;;;13.20;;
85314;SDS011;75718;50.886;11.656;2024-03-08T12:57:34;20.90;;;13.43;;
85314;SDS011;75718;50.886;11.656;2024-03-08T13:00:01;20.50;;;13.32;;
85314;SDS011;75718;50.886;11.656;2024-03-08T13:02:28;22.83;;;13.68;;
85314;SDS011;75718;50.886;11.656;2024-03-08T13:04:55;19.00;;;12.75;;
85314;SDS011;75718;50.886;11.656;2024-03-08T13:07:22;20.67;;;13.13;;
85314;SDS011;75718;50.886;11.656;2024-03-08T13:09:51;21.10;;;14.45;;
85314;SDS011;75718;50.886;11.656;2024-03-08T13:12:17;20.48;;;14.55;;
85314;SDS011;75718;50.886;11.656;2024-03-08T13:14:42;21.60;;;15.17;;
85314;SDS011;75718;50.886;11.656;2024-03-08T13:17:08;20.73;;;14.40;;
85314;SDS011;75718;50.886;11.656;2024-03-08T13:19:36;20.20;;;12.35;;
85314;SDS011;75718;50.886;11.656;2024-03-08T13:22:03;18.95;;;12.90;;
85314;SDS011;75718;50.886;11.656;2024-03-08T13:24:32;18.48;;;12.32;;
85314;SDS011;75718;50.886;11.656;2024-03-08T13:26:57;20.27;;;14.35;;
85314;SDS011;75718;50.886;11.656;2024-03-08T13:29:23;21.20;;;13.55;;
85314;SDS011;75718;50.886;11.656;2024-03-08T13:31:49;18.80;;;12.43;;
85314;SDS011;75718;50.886;11.656;2024-03-08T13:34:17;16.67;;;12.30;;
85314;SDS011;75718;50.886;11.656;2024-03-08T13:36:42;19.63;;;12.57;;
85314;SDS011;75718;50.886;11.656;2024-03-08T13:39:09;18.17;;;11.55;;
85314;SDS011;75718;50.886;11.656;2024-03-08T13:41:40;17.98;;;13.32;;
85314;SDS011;75718;50.886;11.656;2024-03-08T13:44:06;18.42;;;12.25;;
85314;SDS011;75718;50.886;11.656;2024-03-08T13:46:32;17.88;;;11.90;;
85314;SDS011;75718;50.886;11.656;2024-03-08T13:48:57;19.13;;;12.63;;
85314;SDS011;75718;50.886;11.656;2024-03-08T13:51:34;18.42;;;11.20;;
85314;SDS011;75718;50.886;11.656;2024-03-08T13:54:00;17.52;;;11.18;;
85314;SDS011;75718;50.886;11.656;2024-03-08T13:56:25;19.98;;;13.68;;
85314;SDS011;75718;50.886;11.656;2024-03-08T13:58:56;20.27;;;12.88;;
85314;SDS011;75718;50.886;11.656;2024-03-08T14:01:22;17.50;;;12.85;;
85314;SDS011;75718;50.886;11.656;2024-03-08T14:03:47;20.88;;;13.80;;
85314;SDS011;75718;50.886;11.656;2024-03-08T14:06:12;19.53;;;12.33;;
85314;SDS011;75718;50.886;11.656;2024-03-08T14:08:38;21.23;;;13.30;;
85314;SDS011;75718;50.886;11.656;2024-03-08T14:11:03;21.80;;;13.50;;
85314;SDS011;75718;50.886;11.656;2024-03-08T14:13:43;19.52;;;13.23;;
85314;SDS011;75718;50.886;11.656;2024-03-08T14:16:12;15.93;;;11.35;;
85314;SDS011;75718;50.886;11.656;2024-03-08T14:18:38;31.52;;;19.92;;
85314;SDS011;75718;50.886;11.656;2024-03-08T14:21:04;20.25;;;15.13;;